createdAt,value
2024-04-22T00:01:53.881Z,8.60
2024-04-22T00:04:22.492Z,8.60
2024-04-22T00:06:50.753Z,8.60
2024-04-22T00:09:19.159Z,8.60
2024-04-22T00:11:46.840Z,8.60
2024-04-22T00:14:14.435Z,8.60
2024-04-22T00:16:42.021Z,8.60
2024-04-22T00:19:09.848Z,8.50
2024-04-22T00:21:37.376Z,8.50
2024-04-22T00:24:07.180Z,8.50
2024-04-22T00:26:34.932Z,8.50
2024-04-22T00:29:02.483Z,8.50
2024-04-22T00:31:29.984Z,8.50
2024-04-22T00:33:57.756Z,8.50
2024-04-22T00:36:25.196Z,8.50
2024-04-22T00:38:53.305Z,8.40
2024-04-22T00:41:23.538Z,8.40
2024-04-22T00:43:51.078Z,8.40
2024-04-22T00:46:18.659Z,8.40
2024-04-22T00:48:46.250Z,8.40
2024-04-22T00:51:14.479Z,8.40
2024-04-22T00:53:41.957Z,8.40
2024-04-22T00:56:09.380Z,8.40
2024-04-22T00:58:37.833Z,8.40
2024-04-22T01:01:07.178Z,8.40
2024-04-22T01:03:35.128Z,8.40
2024-04-22T01:06:02.590Z,8.40
2024-04-22T01:08:30.025Z,8.40
2024-04-22T01:10:58.737Z,8.40
2024-04-22T01:13:26.335Z,8.30
2024-04-22T01:15:53.969Z,8.30
2024-04-22T01:18:21.610Z,8.30
2024-04-22T01:20:49.192Z,8.30
2024-04-22T01:23:18.635Z,8.30
2024-04-22T01:25:47.672Z,8.30
2024-04-22T01:28:15.256Z,8.30
2024-04-22T01:30:43.068Z,8.20
2024-04-22T01:33:10.558Z,8.20
2024-04-22T01:35:38.006Z,8.20
2024-04-22T01:38:05.499Z,8.20
2024-04-22T01:40:33.642Z,8.20
2024-04-22T01:43:01.506Z,8.40
2024-04-22T01:45:29.078Z,8.10
2024-04-22T01:47:56.565Z,8.20
2024-04-22T01:50:24.135Z,8.20
2024-04-22T01:52:51.733Z,8.10
2024-04-22T01:55:19.165Z,8.10
2024-04-22T01:57:47.111Z,8.10
2024-04-22T02:00:15.156Z,8.10
2024-04-22T02:02:42.726Z,8.30
2024-04-22T02:05:10.116Z,8.10
2024-04-22T02:07:37.763Z,8.10
2024-04-22T02:10:13.212Z,8.10
2024-04-22T02:12:49.379Z,8.10
2024-04-22T02:15:17.014Z,8.10
2024-04-22T02:17:44.825Z,8.10
2024-04-22T02:20:12.381Z,8.10
2024-04-22T02:22:39.838Z,8.00
2024-04-22T02:25:07.442Z,8.00
2024-04-22T02:27:34.987Z,8.00
2024-04-22T02:30:02.473Z,8.00
2024-04-22T02:32:30.103Z,7.90
2024-04-22T02:34:57.721Z,7.90
2024-04-22T02:37:25.356Z,7.90
2024-04-22T02:39:53.231Z,7.90
2024-04-22T02:42:20.674Z,7.90
2024-04-22T02:44:48.042Z,7.90
2024-04-22T02:47:15.461Z,7.90
2024-04-22T02:49:42.916Z,7.90
2024-04-22T02:52:10.390Z,7.80
2024-04-22T02:54:37.761Z,7.80
2024-04-22T02:57:05.733Z,7.80
2024-04-22T02:59:33.156Z,7.80
2024-04-22T03:02:00.601Z,7.80
2024-04-22T03:04:28.034Z,7.70
2024-04-22T03:06:55.559Z,7.70
2024-04-22T03:09:23.199Z,7.70
2024-04-22T03:11:50.603Z,7.80
2024-04-22T03:14:18.063Z,7.80
2024-04-22T03:16:45.536Z,7.70
2024-04-22T03:19:13.000Z,7.70
2024-04-22T03:21:40.557Z,7.70
2024-04-22T03:24:07.987Z,7.70
2024-04-22T03:26:35.475Z,7.60
2024-04-22T03:29:02.896Z,7.60
2024-04-22T03:31:32.774Z,7.60
2024-04-22T03:34:00.848Z,7.50
2024-04-22T03:36:28.355Z,7.60
2024-04-22T03:38:56.705Z,7.60
2024-04-22T03:41:24.315Z,7.60
2024-04-22T03:43:51.916Z,7.60
2024-04-22T03:46:38.099Z,7.60
2024-04-22T03:49:24.497Z,7.60
2024-04-22T03:51:52.257Z,7.60
2024-04-22T03:54:20.674Z,7.50
2024-04-22T03:56:48.354Z,7.50
2024-04-22T03:59:16.289Z,7.50
2024-04-22T04:01:44.859Z,7.50
2024-04-22T04:04:12.918Z,7.50
2024-04-22T04:06:40.692Z,7.50
2024-04-22T04:09:08.248Z,7.50
2024-04-22T04:11:38.483Z,7.40
2024-04-22T04:14:06.375Z,7.40
2024-04-22T04:16:34.155Z,7.40
2024-04-22T04:19:01.715Z,7.40
2024-04-22T04:21:29.241Z,7.30
2024-04-22T04:23:56.879Z,7.30
2024-04-22T04:26:24.449Z,7.30
2024-04-22T04:28:52.135Z,7.30
2024-04-22T04:31:19.772Z,7.20
2024-04-22T04:33:47.213Z,7.20
2024-04-22T04:36:14.907Z,7.20
2024-04-22T04:38:42.387Z,7.20
2024-04-22T04:41:09.931Z,7.10
2024-04-22T04:43:37.439Z,7.10
2024-04-22T04:46:05.940Z,7.10
2024-04-22T04:48:33.436Z,7.10
2024-04-22T04:51:00.908Z,7.10
2024-04-22T04:53:28.429Z,7.00
2024-04-22T04:55:56.058Z,7.00
2024-04-22T04:58:25.599Z,6.90
2024-04-22T05:00:53.389Z,6.90
2024-04-22T05:03:21.206Z,6.90
2024-04-22T05:05:56.995Z,6.90
2024-04-22T05:08:24.438Z,6.90
2024-04-22T05:10:52.049Z,6.80
2024-04-22T05:13:19.646Z,6.80
2024-04-22T05:15:47.800Z,6.80
2024-04-22T05:18:15.648Z,6.80
2024-04-22T05:20:43.389Z,6.70
2024-04-22T05:23:10.887Z,6.70
2024-04-22T05:25:38.355Z,6.70
2024-04-22T05:28:06.033Z,6.70
2024-04-22T05:30:33.608Z,6.70
2024-04-22T05:33:06.997Z,6.70
2024-04-22T05:35:53.564Z,6.60
2024-04-22T05:38:21.084Z,6.60
2024-04-22T05:40:48.629Z,6.60
2024-04-22T05:43:16.076Z,6.60
2024-04-22T05:45:43.603Z,6.60
2024-04-22T05:48:11.426Z,6.50
2024-04-22T05:50:38.906Z,6.50
2024-04-22T05:53:06.537Z,6.50
2024-04-22T05:55:34.400Z,6.50
2024-04-22T05:58:01.908Z,6.40
2024-04-22T06:00:29.402Z,6.50
2024-04-22T06:02:56.786Z,6.50
2024-04-22T06:05:24.612Z,6.40
2024-04-22T06:07:52.055Z,6.40
2024-04-22T06:10:19.664Z,6.40
2024-04-22T06:12:47.461Z,6.40
2024-04-22T06:15:14.885Z,6.40
2024-04-22T06:17:42.303Z,6.40
2024-04-22T06:20:11.240Z,6.50
2024-04-22T06:22:39.511Z,6.40
2024-04-22T06:25:07.737Z,6.40
2024-04-22T06:27:35.563Z,6.30
2024-04-22T06:30:06.758Z,6.30
2024-04-22T06:32:36.657Z,6.40
2024-04-22T06:35:04.229Z,6.40
2024-04-22T06:37:31.719Z,6.40
2024-04-22T06:39:59.145Z,6.40
2024-04-22T06:42:26.597Z,6.40
2024-04-22T06:44:54.047Z,6.50
2024-04-22T06:47:22.558Z,6.50
2024-04-22T06:49:50.283Z,6.50
2024-04-22T06:52:17.834Z,6.50
2024-04-22T06:54:45.296Z,6.60
2024-04-22T06:57:12.917Z,6.60
2024-04-22T06:59:40.378Z,6.60
2024-04-22T07:02:11.609Z,6.60
2024-04-22T07:04:40.977Z,6.70
2024-04-22T07:07:08.818Z,6.70
2024-04-22T07:09:37.494Z,6.80
2024-04-22T07:12:05.285Z,6.80
2024-04-22T07:14:32.729Z,6.90
2024-04-22T07:17:00.356Z,6.90
2024-04-22T07:19:27.829Z,6.90
2024-04-22T07:21:56.706Z,7.00
2024-04-22T07:24:26.356Z,7.00
2024-04-22T07:26:55.954Z,7.10
2024-04-22T07:29:23.748Z,7.10
2024-04-22T07:31:51.930Z,7.10
2024-04-22T07:34:19.950Z,7.20
2024-04-22T07:36:48.121Z,7.20
2024-04-22T07:39:15.726Z,7.30
2024-04-22T07:41:43.237Z,7.30
2024-04-22T07:44:11.366Z,7.30
2024-04-22T07:46:41.159Z,7.40
2024-04-22T07:49:08.694Z,7.40
2024-04-22T07:51:38.676Z,7.40
2024-04-22T07:54:06.378Z,7.50
2024-04-22T07:56:33.990Z,7.50
2024-04-22T07:59:01.483Z,7.60
2024-04-22T08:01:29.019Z,7.60
2024-04-22T08:03:56.638Z,7.60
2024-04-22T08:06:24.091Z,7.60
2024-04-22T08:08:51.855Z,7.70
2024-04-22T08:11:19.945Z,7.80
2024-04-22T08:13:48.015Z,7.80
2024-04-22T08:16:15.861Z,7.80
2024-04-22T08:18:43.509Z,7.90
2024-04-22T08:21:13.618Z,7.90
2024-04-22T08:23:41.509Z,7.90
2024-04-22T08:26:08.969Z,8.00
2024-04-22T08:28:36.441Z,8.10
2024-04-22T08:31:04.404Z,8.10
2024-04-22T08:33:31.963Z,8.20
2024-04-22T08:35:59.984Z,8.20
2024-04-22T08:38:27.697Z,8.30
2024-04-22T08:40:56.593Z,8.40
2024-04-22T08:43:24.506Z,8.40
2024-04-22T08:45:52.227Z,8.50
2024-04-22T08:48:19.914Z,8.60
2024-04-22T08:50:49.740Z,8.70
2024-04-22T08:56:47.485Z,8.80
2024-04-22T08:59:22.134Z,9.00
2024-04-22T09:02:04.682Z,9.10
2024-04-22T09:04:32.470Z,9.20
2024-04-22T09:07:06.507Z,9.30
2024-04-22T09:09:43.818Z,9.40
2024-04-22T09:12:21.584Z,9.50
2024-04-22T09:14:59.162Z,9.80
2024-04-22T09:17:27.422Z,9.70
2024-04-22T09:19:55.153Z,9.80
2024-04-22T09:22:22.684Z,9.90
2024-04-22T09:24:50.286Z,10.00
2024-04-22T09:27:17.808Z,10.10
2024-04-22T09:29:45.442Z,10.20
2024-04-22T09:32:14.068Z,10.30
2024-04-22T09:34:42.542Z,10.40
2024-04-22T09:37:10.577Z,10.40
2024-04-22T09:39:42.306Z,10.50
2024-04-22T09:42:10.474Z,10.60
2024-04-22T09:44:38.116Z,10.70
2024-04-22T09:47:05.996Z,10.70
2024-04-22T09:49:33.938Z,10.80
2024-04-22T09:52:02.004Z,10.90
2024-04-22T09:54:29.926Z,10.90
2024-04-22T09:56:58.512Z,11.00
2024-04-22T09:59:26.112Z,11.00
2024-04-22T10:01:54.056Z,11.10
2024-04-22T10:04:22.022Z,11.10
2024-04-22T10:06:50.913Z,11.20
2024-04-22T10:09:18.918Z,11.20
2024-04-22T10:11:46.709Z,11.30
2024-04-22T10:14:18.564Z,11.30
2024-04-22T10:16:58.905Z,11.40
2024-04-22T10:19:33.793Z,11.40
2024-04-22T10:22:02.069Z,11.50
2024-04-22T10:24:36.796Z,11.50
2024-04-22T10:27:15.146Z,11.60
2024-04-22T10:29:43.647Z,11.70
2024-04-22T10:32:11.554Z,11.70
2024-04-22T10:34:45.362Z,11.80
2024-04-22T10:37:13.871Z,11.90
2024-04-22T10:39:41.997Z,12.00
2024-04-22T10:42:10.681Z,12.00
2024-04-22T10:44:38.725Z,12.10
2024-04-22T10:47:09.439Z,12.20
2024-04-22T10:49:37.374Z,14.00
2024-04-22T10:52:05.380Z,12.30
2024-04-22T10:54:32.858Z,12.30
2024-04-22T10:57:00.373Z,12.40
2024-04-22T10:59:27.898Z,12.50
2024-04-22T11:01:55.496Z,12.60
2024-04-22T11:04:23.007Z,12.60
2024-04-22T11:06:51.435Z,12.60
2024-04-22T11:09:19.073Z,12.70
2024-04-22T11:11:46.991Z,12.70
2024-04-22T11:14:14.907Z,12.70
2024-04-22T11:16:42.444Z,12.80
2024-04-22T11:19:10.746Z,12.80
2024-04-22T11:21:38.179Z,12.90
2024-04-22T11:24:06.359Z,13.00
2024-04-22T11:26:35.161Z,13.00
2024-04-22T11:29:04.282Z,13.00
2024-04-22T11:31:34.204Z,13.10
2024-04-22T11:34:01.678Z,13.10
2024-04-22T11:36:35.071Z,13.10
2024-04-22T11:39:09.882Z,13.10
2024-04-22T11:41:37.775Z,13.20
2024-04-22T11:44:05.888Z,13.20
2024-04-22T11:46:33.760Z,13.20
2024-04-22T11:49:01.476Z,13.20
2024-04-22T11:51:29.069Z,13.20
2024-04-22T11:53:56.954Z,13.20
2024-04-22T11:56:31.351Z,13.20
2024-04-22T11:58:59.028Z,13.30
2024-04-22T12:01:26.556Z,13.30
2024-04-22T12:03:54.196Z,13.30
2024-04-22T12:06:21.756Z,13.50
2024-04-22T12:08:49.247Z,13.40
2024-04-22T12:11:16.965Z,13.50
2024-04-22T12:13:44.495Z,14.00
2024-04-22T12:16:12.050Z,13.50
2024-04-22T12:18:39.488Z,13.60
2024-04-22T12:21:07.275Z,13.60
2024-04-22T12:23:35.607Z,13.70
2024-04-22T12:26:03.158Z,13.70
2024-04-22T12:28:31.684Z,13.80
2024-04-22T12:30:59.205Z,13.80
2024-04-22T12:33:27.122Z,13.90
2024-04-22T12:35:54.869Z,14.00
2024-04-22T12:38:22.563Z,13.90
2024-04-22T12:40:50.169Z,13.90
2024-04-22T12:43:18.171Z,13.90
2024-04-22T12:45:45.693Z,14.00
2024-04-22T12:48:31.868Z,14.00
2024-04-22T12:51:01.190Z,14.00
2024-04-22T12:53:29.397Z,14.00
2024-04-22T12:55:56.949Z,14.10
2024-04-22T12:58:24.485Z,14.10
2024-04-22T13:00:52.025Z,14.10
2024-04-22T13:03:20.928Z,14.10
2024-04-22T13:05:48.392Z,14.10
2024-04-22T13:08:16.093Z,14.10
2024-04-22T13:10:43.773Z,14.10
2024-04-22T13:13:11.329Z,14.10
2024-04-22T13:15:38.800Z,14.10
2024-04-22T13:18:06.578Z,14.20
2024-04-22T13:20:34.158Z,14.20
2024-04-22T13:23:01.773Z,14.20
2024-04-22T13:25:29.279Z,14.30
2024-04-22T13:27:59.602Z,14.20
2024-04-22T13:30:27.643Z,14.30
2024-04-22T13:32:55.749Z,14.40
2024-04-22T13:35:23.694Z,14.40
2024-04-22T13:37:51.405Z,14.40
2024-04-22T13:40:19.693Z,14.50
2024-04-22T13:42:49.353Z,14.50
2024-04-22T13:45:18.166Z,14.50
2024-04-22T13:47:45.773Z,14.60
2024-04-22T13:50:14.312Z,14.60
2024-04-22T13:52:44.988Z,14.70
2024-04-22T13:55:12.669Z,14.70
2024-04-22T13:57:40.522Z,14.80
2024-04-22T14:00:12.171Z,14.80
2024-04-22T14:02:41.982Z,14.90
2024-04-22T14:05:09.808Z,15.00
2024-04-22T14:07:37.524Z,15.00
2024-04-22T14:10:08.565Z,15.00
2024-04-22T14:12:37.312Z,15.10
2024-04-22T14:15:05.957Z,15.10
2024-04-22T14:17:34.001Z,15.10
2024-04-22T14:20:01.790Z,15.10
2024-04-22T14:22:29.315Z,15.20
2024-04-22T14:24:56.856Z,15.20
2024-04-22T14:27:24.625Z,15.20
2024-04-22T14:29:52.159Z,15.20
2024-04-22T14:32:19.926Z,15.20
2024-04-22T14:34:51.836Z,15.20
2024-04-22T14:37:20.868Z,15.20
2024-04-22T14:39:48.570Z,15.20
2024-04-22T14:42:16.019Z,15.20
2024-04-22T14:44:44.612Z,15.20
2024-04-22T14:47:12.592Z,15.20
2024-04-22T14:49:40.031Z,15.20
2024-04-22T14:52:07.756Z,15.10
2024-04-22T14:54:35.257Z,15.10
2024-04-22T14:57:02.731Z,15.20
2024-04-22T14:59:30.282Z,15.20
2024-04-22T15:01:58.200Z,15.20
2024-04-22T15:04:26.021Z,15.30
2024-04-22T15:06:54.435Z,15.30
2024-04-22T15:09:22.583Z,15.40
2024-04-22T15:11:50.414Z,15.40
2024-04-22T15:14:18.000Z,15.60
2024-04-22T15:16:45.590Z,15.60
2024-04-22T15:19:13.058Z,15.70
2024-04-22T15:21:40.448Z,15.70
2024-04-22T15:24:08.040Z,15.80
2024-04-22T15:26:35.470Z,15.70
2024-04-22T15:29:03.790Z,15.80
2024-04-22T15:31:31.281Z,15.80
2024-04-22T15:33:58.869Z,15.70
2024-04-22T15:36:26.582Z,15.80
2024-04-22T15:38:54.053Z,15.80
2024-04-22T15:41:21.563Z,15.80
2024-04-22T15:43:49.085Z,15.80
2024-04-22T15:46:16.898Z,15.70
2024-04-22T15:48:44.787Z,15.70
2024-04-22T15:51:12.269Z,15.70
2024-04-22T15:53:39.682Z,15.70
2024-04-22T15:56:07.673Z,15.70
2024-04-22T15:58:35.550Z,15.60
2024-04-22T16:01:03.270Z,15.60
2024-04-22T16:03:32.136Z,15.60
2024-04-22T16:05:59.796Z,15.60
2024-04-22T16:08:28.484Z,15.50
2024-04-22T16:10:56.879Z,15.40
2024-04-22T16:13:24.461Z,15.40
2024-04-22T16:15:52.043Z,15.40
2024-04-22T16:18:19.989Z,15.30
2024-04-22T16:20:56.513Z,15.30
2024-04-22T16:23:31.816Z,15.30
2024-04-22T16:26:00.104Z,15.20
2024-04-22T16:28:27.867Z,15.10
2024-04-22T16:30:55.416Z,15.10
2024-04-22T16:33:23.627Z,15.00
2024-04-22T16:35:51.269Z,15.00
2024-04-22T16:38:19.167Z,15.00
2024-04-22T16:40:47.695Z,14.90
2024-04-22T16:43:16.363Z,14.90
2024-04-22T16:45:43.887Z,14.80
2024-04-22T16:48:11.509Z,14.80
2024-04-22T16:50:39.017Z,14.70
2024-04-22T16:53:06.773Z,14.70
2024-04-22T16:55:34.823Z,14.70
2024-04-22T16:58:02.446Z,14.70
2024-04-22T17:00:30.043Z,14.60
2024-04-22T17:02:57.837Z,14.60
2024-04-22T17:05:25.376Z,14.50
2024-04-22T17:07:53.262Z,14.50
2024-04-22T17:10:21.788Z,14.40
2024-04-22T17:12:51.348Z,14.40
2024-04-22T17:15:19.371Z,14.30
2024-04-22T17:17:47.304Z,14.30
2024-04-22T17:20:14.868Z,14.20
2024-04-22T17:22:42.973Z,14.20
2024-04-22T17:25:11.541Z,14.10
2024-04-22T17:27:39.100Z,14.10
2024-04-22T17:30:06.875Z,14.00
2024-04-22T17:32:34.610Z,14.00
2024-04-22T17:35:02.992Z,14.00
2024-04-22T17:37:30.426Z,14.40
2024-04-22T17:39:58.209Z,13.90
2024-04-22T17:42:25.662Z,13.90
2024-04-22T17:44:55.035Z,13.80
2024-04-22T17:47:22.529Z,13.80
2024-04-22T17:49:50.143Z,13.70
2024-04-22T17:52:17.881Z,13.70
2024-04-22T17:54:48.699Z,13.60
2024-04-22T17:57:17.929Z,13.60
2024-04-22T17:59:45.604Z,13.50
2024-04-22T18:02:13.485Z,13.50
2024-04-22T18:04:41.239Z,13.50
2024-04-22T18:07:09.098Z,13.50
2024-04-22T18:09:36.672Z,13.50
2024-04-22T18:12:05.595Z,13.40
2024-04-22T18:14:33.488Z,13.40
2024-04-22T18:17:01.277Z,13.40
2024-04-22T18:19:28.901Z,13.30
2024-04-22T18:22:01.661Z,13.30
2024-04-22T18:24:32.349Z,13.30
2024-04-22T18:27:01.429Z,13.20
2024-04-22T18:29:28.926Z,13.20
2024-04-22T18:31:56.437Z,13.10
2024-04-22T18:34:23.939Z,13.10
2024-04-22T18:36:53.116Z,13.10
2024-04-22T18:39:20.584Z,13.00
2024-04-22T18:41:48.104Z,13.10
2024-04-22T18:44:15.759Z,13.00
2024-04-22T18:46:44.978Z,14.00
2024-04-22T18:49:12.569Z,12.90
2024-04-22T18:51:40.178Z,12.90
2024-04-22T18:54:07.711Z,12.80
2024-04-22T18:56:35.576Z,12.80
2024-04-22T18:59:03.181Z,12.80
2024-04-22T19:01:31.549Z,12.70
2024-04-22T19:03:59.242Z,12.60
2024-04-22T19:06:26.859Z,12.60
2024-04-22T19:08:54.342Z,12.50
2024-04-22T19:11:21.837Z,12.50
2024-04-22T19:13:49.933Z,12.50
2024-04-22T19:16:18.336Z,12.50
2024-04-22T19:18:48.298Z,12.40
2024-04-22T19:21:16.535Z,12.40
2024-04-22T19:23:44.124Z,12.30
2024-04-22T19:26:13.082Z,12.30
2024-04-22T19:28:40.987Z,12.30
2024-04-22T19:31:08.930Z,12.30
2024-04-22T19:33:36.487Z,12.20
2024-04-22T19:36:04.193Z,12.10
2024-04-22T19:38:31.963Z,12.10
2024-04-22T19:40:59.713Z,12.10
2024-04-22T19:43:27.865Z,12.00
2024-04-22T19:45:55.640Z,12.00
2024-04-22T19:48:23.510Z,12.00
2024-04-22T19:50:53.242Z,11.90
2024-04-22T19:53:21.034Z,11.80
2024-04-22T19:55:49.515Z,11.80
2024-04-22T19:58:17.303Z,11.80
2024-04-22T20:00:45.119Z,11.70
2024-04-22T20:03:13.007Z,11.80
2024-04-22T20:05:40.919Z,11.60
2024-04-22T20:08:09.879Z,11.60
2024-04-22T20:10:41.550Z,11.60
2024-04-22T20:13:10.873Z,11.50
2024-04-22T20:15:50.680Z,11.50
2024-04-22T20:18:29.185Z,11.50
2024-04-22T20:20:56.916Z,11.40
2024-04-22T20:23:24.705Z,11.40
2024-04-22T20:25:55.711Z,11.30
2024-04-22T20:28:24.785Z,11.30
2024-04-22T20:30:52.592Z,11.20
2024-04-22T20:33:20.575Z,11.20
2024-04-22T20:35:54.650Z,11.20
2024-04-22T20:38:22.584Z,11.10
2024-04-22T20:40:58.371Z,11.10
2024-04-22T20:43:35.305Z,11.00
2024-04-22T20:46:03.445Z,11.00
2024-04-22T20:48:33.005Z,11.00
2024-04-22T20:51:01.412Z,10.90
2024-04-22T20:53:29.497Z,10.80
2024-04-22T20:56:00.891Z,10.90
2024-04-22T20:58:28.501Z,10.80
2024-04-22T21:00:59.843Z,10.80
2024-04-22T21:03:27.845Z,10.70
2024-04-22T21:05:58.901Z,10.70
2024-04-22T21:08:26.875Z,10.70
2024-04-22T21:10:55.179Z,10.60
2024-04-22T21:13:22.794Z,10.60
2024-04-22T21:15:50.900Z,10.50
2024-04-22T21:18:20.723Z,10.50
2024-04-22T21:20:48.557Z,10.50
2024-04-22T21:23:16.328Z,10.40
2024-04-22T21:25:44.411Z,10.40
2024-04-22T21:28:11.961Z,10.30
2024-04-22T21:30:39.630Z,10.30
2024-04-22T21:35:40.054Z,10.30
2024-04-22T21:38:07.969Z,10.20
2024-04-22T21:40:37.751Z,10.10
2024-04-22T21:43:05.625Z,10.10
2024-04-22T21:45:33.361Z,10.10
2024-04-22T21:48:01.239Z,10.00
2024-04-22T21:50:33.005Z,10.00
2024-04-22T21:53:00.458Z,10.00
2024-04-22T21:55:57.218Z,10.00
2024-04-22T21:58:43.281Z,9.90
2024-04-22T22:01:30.044Z,9.90
2024-04-22T22:04:16.266Z,9.80
2024-04-22T22:07:03.239Z,9.80
2024-04-22T22:09:31.487Z,9.80
2024-04-22T22:11:59.181Z,9.70
2024-04-22T22:14:26.729Z,9.70
2024-04-22T22:16:54.240Z,9.70
2024-04-22T22:19:21.732Z,9.60
2024-04-22T22:21:49.128Z,9.60
2024-04-22T22:24:16.607Z,10.50
2024-04-22T22:26:44.347Z,9.50
2024-04-22T22:29:11.972Z,9.90
2024-04-22T22:31:39.716Z,9.40
2024-04-22T22:34:07.441Z,9.40
2024-04-22T22:36:35.115Z,9.40
2024-04-22T22:39:02.717Z,9.30
2024-04-22T22:41:30.248Z,9.30
2024-04-22T22:43:58.607Z,9.30
2024-04-22T22:46:26.574Z,9.30
2024-04-22T22:48:54.398Z,9.20
2024-04-22T22:51:21.924Z,9.20
2024-04-22T22:53:50.120Z,9.10
2024-04-22T22:56:17.895Z,9.10
2024-04-22T22:58:45.532Z,9.10
2024-04-22T23:01:13.807Z,9.00
2024-04-22T23:03:42.102Z,9.00
2024-04-22T23:06:09.545Z,8.90
2024-04-22T23:08:37.085Z,8.90
2024-04-22T23:11:04.635Z,8.90
2024-04-22T23:13:32.386Z,8.80
2024-04-22T23:15:59.858Z,8.80
2024-04-22T23:18:27.347Z,8.70
2024-04-22T23:20:54.992Z,8.70
2024-04-22T23:23:22.418Z,8.70
2024-04-22T23:25:49.858Z,8.60
2024-04-22T23:28:17.532Z,8.60
2024-04-22T23:30:46.554Z,8.60
2024-04-22T23:33:14.261Z,8.50
2024-04-22T23:35:42.120Z,8.50
2024-04-22T23:38:09.810Z,8.40
2024-04-22T23:40:38.467Z,8.40
2024-04-22T23:43:06.443Z,8.40
2024-04-22T23:45:34.229Z,8.40
2024-04-22T23:48:01.822Z,8.30
2024-04-22T23:50:29.407Z,8.30
2024-04-22T23:52:57.002Z,8.30
2024-04-22T23:55:24.631Z,8.20
2024-04-22T23:57:52.133Z,8.00
